Time;durP1;ratioP1;P1;durP2;ratioP2;P2;SDS_P1;SDS_P2;PMS_P1;PMS_P2;Temp;Humidity;BMP_temperature;BMP_pressure;BME280_temperature;BME280_humidity;BME280_pressure;Samples;Min_cycle;Max_cycle;Signal;HPM_P1;HPM_P2
2022/06/30 00:01:46;;;;;;;5.95;1.25;;;;;;;12.25;85.94;99894.13;5945827;23;20264;-76
2022/06/30 00:07:38;;;;;;;2.63;1.15;;;;;;;11.95;86.31;99841.25;6081396;23;20008;-75
2022/06/30 00:10:52;;;;;;;6.32;1.45;;;;;;;12.15;85.83;99878.59;6207297;23;20020;-77
2022/06/30 00:13:20;;;;;;;4.22;1.33;;;;;;;12.04;86.77;99861.41;6194401;23;20075;-74
2022/06/30 00:15:46;;;;;;;3.40;1.67;;;;;;;12.25;86.67;99877.69;6217390;23;20024;-74
2022/06/30 00:18:14;;;;;;;7.03;1.40;;;;;;;12.27;86.28;99875.44;6310333;22;20011;-75
2022/06/30 00:20:42;;;;;;;6.57;1.60;;;;;;;12.45;86.16;99895.00;6291673;22;20027;-76
2022/06/30 00:23:10;;;;;;;7.32;1.70;;;;;;;12.33;85.62;99868.78;6292546;22;20010;-76
2022/06/30 00:25:38;;;;;;;6.97;1.98;;;;;;;12.39;85.55;99877.78;6318885;22;20007;-76
2022/06/30 00:28:04;;;;;;;7.07;1.20;;;;;;;12.49;85.70;99879.59;6317929;22;20002;-75
2022/06/30 00:30:29;;;;;;;4.95;1.55;;;;;;;12.55;85.73;99892.13;6318895;22;20089;-77
2022/06/30 00:32:57;;;;;;;5.25;1.05;;;;;;;12.60;85.02;99886.59;6317817;22;20002;-77
2022/06/30 00:35:23;;;;;;;8.73;1.45;;;;;;;12.55;85.06;99872.94;6318837;22;19999;-75
2022/06/30 00:37:51;;;;;;;7.72;1.40;;;;;;;12.60;85.05;99866.56;6345183;22;20010;-76
2022/06/30 00:40:17;;;;;;;12.45;1.60;;;;;;;12.55;85.14;99856.47;6319011;22;20044;-76
2022/06/30 00:42:42;;;;;;;15.07;2.47;;;;;;;12.55;84.98;99853.75;6317185;22;20007;-76
2022/06/30 00:45:11;;;;;;;7.45;1.42;;;;;;;12.54;84.95;99852.09;6291383;22;20014;-76
2022/06/30 00:47:40;;;;;;;8.13;1.30;;;;;;;12.45;85.18;99834.66;6316466;22;20007;-76
2022/06/30 00:50:07;;;;;;;7.18;1.13;;;;;;;12.45;85.17;99826.44;6318275;22;20010;-76
2022/06/30 00:52:35;;;;;;;9.85;1.30;;;;;;;12.55;84.61;99831.81;6344287;22;20325;-76
2022/06/30 00:55:03;;;;;;;3.97;1.10;;;;;;;12.60;85.07;99839.13;6345121;22;19999;-75
2022/06/30 00:57:53;;;;;;;;;;;;;;;;;;;;;
2022/06/30 01:00:19;;;;;;;6.40;1.30;;;;;;;12.61;84.84;99841.59;6346018;22;20373;-75
2022/06/30 01:02:47;;;;;;;3.47;1.00;;;;;;;12.57;84.16;99824.06;6346862;22;19999;-74
2022/06/30 01:05:15;;;;;;;2.80;0.90;;;;;;;12.68;84.74;99842.03;6316654;22;19999;-75
2022/06/30 01:07:40;;;;;;;5.32;1.30;;;;;;;12.65;84.56;99837.16;6346368;22;20075;-75
2022/06/30 01:12:53;;;;;;;5.90;1.63;;;;;;;12.79;83.44;99869.34;6299902;22;20014;-75
2022/06/30 01:16:29;;;;;;;;;;;;;;;;;;;;;
2022/06/30 01:19:15;;;;;;;;;;;;;;;;;;;;;
2022/06/30 01:22:04;;;;;;;5.57;1.83;;;;;;;12.70;84.69;99877.41;6321511;22;20038;-78
2022/06/30 01:24:37;;;;;;;10.55;2.30;;;;;;;12.56;84.41;99855.38;6317417;22;20009;-73
2022/06/30 01:27:19;;;;;;;7.75;1.88;;;;;;;12.63;85.43;99877.78;6344188;22;19995;-75
2022/06/30 01:29:50;;;;;;;13.57;2.55;;;;;;;12.48;85.78;99858.75;6320362;22;20007;-74
2022/06/30 01:32:35;;;;;;;;;;;;;;;;;;;;;
2022/06/30 01:35:01;;;;;;;6.38;1.85;;;;;;;12.35;86.20;99872.06;6347501;22;20033;-77
2022/06/30 01:38:03;;;;;;;4.30;1.33;;;;;;;12.39;86.20;99883.25;6321313;22;20003;-78
2022/06/30 01:40:51;;;;;;;6.32;1.70;;;;;;;12.32;87.03;99878.13;6347344;22;20329;-78
2022/06/30 01:43:16;;;;;;;7.88;1.55;;;;;;;12.26;88.11;99879.28;6343791;22;20065;-77
2022/06/30 01:45:45;;;;;;;8.43;1.50;;;;;;;12.09;88.16;99873.44;6293939;22;20010;-79
2022/06/30 01:48:10;;;;;;;4.88;1.55;;;;;;;12.12;88.78;99878.34;6322477;22;20076;-80
2022/06/30 01:50:36;;;;;;;15.48;2.55;;;;;;;11.99;88.93;99860.66;6320563;22;20007;-79
2022/06/30 01:53:05;;;;;;;4.68;1.25;;;;;;;11.89;89.16;99861.53;6320850;22;19999;-83
2022/06/30 01:55:31;;;;;;;4.70;1.38;;;;;;;11.94;89.81;99866.19;6319864;22;20002;-78
2022/06/30 01:57:58;;;;;;;7.63;1.45;;;;;;;11.78;90.14;99851.78;6320834;22;20010;-80
2022/06/30 02:00:26;;;;;;;6.45;1.77;;;;;;;11.73;90.44;99860.88;6319355;22;20013;-77
2022/06/30 02:02:56;;;;;;;7.50;1.92;;;;;;;11.53;91.02;99853.63;6289654;22;20018;-79
2022/06/30 02:05:22;;;;;;;6.63;1.40;;;;;;;11.38;91.74;99848.28;6294605;22;20057;-79
2022/06/30 02:07:52;;;;;;;10.15;2.08;;;;;;;11.24;92.95;99848.91;6321454;22;20325;-79
2022/06/30 02:10:20;;;;;;;7.53;1.17;;;;;;;11.07;93.05;99843.00;6348770;22;20044;-79
2022/06/30 02:12:46;;;;;;;4.65;1.13;;;;;;;11.03;93.56;99855.66;6318882;22;20026;-78
2022/06/30 02:15:20;;;;;;;5.60;1.15;;;;;;;10.91;93.29;99856.81;6294671;22;19991;-78
2022/06/30 02:17:47;;;;;;;3.15;0.95;;;;;;;10.82;93.55;99864.78;6320618;22;20011;-78
2022/06/30 02:20:13;;;;;;;8.85;1.77;;;;;;;10.76;94.12;99865.06;6320480;22;20909;-79
2022/06/30 02:22:40;;;;;;;6.68;1.23;;;;;;;10.72;94.54;99864.81;6319658;22;20009;-77
2022/06/30 02:25:10;;;;;;;4.80;1.20;;;;;;;10.63;95.02;99848.19;6347495;22;20029;-78
2022/06/30 02:27:36;;;;;;;9.32;1.52;;;;;;;10.73;94.45;99854.69;6319649;22;19995;-78
2022/06/30 02:30:01;;;;;;;7.22;1.35;;;;;;;10.81;95.25;99862.31;6320206;22;20006;-77
2022/06/30 02:32:27;;;;;;;15.35;2.50;;;;;;;10.85;95.19;99866.13;6319871;22;20007;-79
2022/06/30 02:34:52;;;;;;;7.45;1.52;;;;;;;10.91;95.88;99851.31;6293380;22;20010;-78
2022/06/30 02:37:18;;;;;;;4.93;1.60;;;;;;;11.00;95.39;99860.56;6320868;22;20021;-78
2022/06/30 02:39:44;;;;;;;2.80;0.90;;;;;;;11.08;94.57;99853.69;6320123;22;19999;-79
2022/06/30 02:42:18;;;;;;;2.47;0.80;;;;;;;11.12;94.63;99851.19;6320858;22;20005;-78
2022/06/30 02:44:43;;;;;;;2.17;0.47;;;;;;;11.31;93.70;99865.84;6348835;22;20418;-79
2022/06/30 02:47:12;;;;;;;1.42;0.65;;;;;;;11.32;93.73;99844.78;6320815;22;19994;-80
2022/06/30 02:49:39;;;;;;;1.95;1.30;;;;;;;11.37;92.91;99847.47;6321335;22;20321;-77
2022/06/30 02:52:05;;;;;;;3.53;0.95;;;;;;;11.43;92.56;99848.25;6269231;22;20011;-77
2022/06/30 02:54:31;;;;;;;3.83;1.15;;;;;;;11.47;92.71;99852.06;6346234;22;20002;-78
2022/06/30 02:56:59;;;;;;;10.75;1.20;;;;;;;11.41;92.61;99850.47;6319723;22;20026;-77
2022/06/30 02:59:24;;;;;;;5.22;1.30;;;;;;;11.34;92.31;99856.25;6316629;22;19998;-77
2022/06/30 03:01:50;;;;;;;7.35;1.33;;;;;;;11.34;92.24;99873.47;6319789;22;20014;-77
2022/06/30 03:04:16;;;;;;;8.48;1.20;;;;;;;11.24;92.85;99868.06;6319562;22;20011;-77
2022/06/30 03:06:41;;;;;;;2.60;0.70;;;;;;;11.15;92.59;99878.00;6294329;22;20003;-77
2022/06/30 03:09:07;;;;;;;6.15;1.13;;;;;;;11.09;92.84;99874.47;6344926;22;20065;-77
2022/06/30 03:11:33;;;;;;;10.65;1.60;;;;;;;11.02;93.34;99862.22;6318615;22;20037;-78
2022/06/30 03:13:58;;;;;;;9.00;1.60;;;;;;;10.99;93.74;99872.63;6319286;22;20405;-78
2022/06/30 03:16:24;;;;;;;6.13;1.80;;;;;;;10.91;93.77;99873.22;6343121;22;20029;-77
2022/06/30 03:18:49;;;;;;;7.95;1.63;;;;;;;10.79;94.04;99875.44;6319148;22;20007;-77
2022/06/30 03:21:19;;;;;;;12.52;1.65;;;;;;;10.71;94.97;99876.84;6290980;22;20003;-77
2022/06/30 03:23:46;;;;;;;3.92;1.25;;;;;;;10.61;94.84;99891.38;6345866;22;20080;-77
2022/06/30 03:26:12;;;;;;;6.05;1.27;;;;;;;10.53;94.75;99882.94;6294263;22;20433;-78
2022/06/30 03:28:38;;;;;;;8.10;1.58;;;;;;;10.44;95.60;99875.34;6296486;22;20048;-78
2022/06/30 03:31:04;;;;;;;2.92;0.80;;;;;;;10.23;95.53;99871.78;6321877;22;20028;-78
2022/06/30 03:33:29;;;;;;;4.07;1.02;;;;;;;10.18;96.06;99877.28;6349101;22;19994;-77
2022/06/30 03:35:56;;;;;;;6.57;1.40;;;;;;;10.17;96.10;99891.22;6270681;22;20010;-77
2022/06/30 03:38:26;;;;;;;5.82;1.02;;;;;;;10.06;96.79;99882.22;6319748;22;20037;-78
2022/06/30 03:40:54;;;;;;;7.25;1.50;;;;;;;9.96;96.86;99867.47;6321327;22;20329;-77
2022/06/30 03:43:21;;;;;;;7.22;1.50;;;;;;;10.01;96.66;99876.78;6318364;22;19998;-78
2022/06/30 03:45:47;;;;;;;3.15;0.60;;;;;;;9.98;96.95;99871.84;6349216;22;20072;-78
2022/06/30 03:48:12;;;;;;;4.88;1.23;;;;;;;9.99;97.59;99873.47;6294696;22;20003;-75
2022/06/30 03:50:38;;;;;;;8.35;1.20;;;;;;;9.93;97.21;99865.31;6294859;22;20379;-76
2022/06/30 03:53:04;;;;;;;7.70;1.30;;;;;;;9.92;97.44;99863.66;6319513;22;20006;-76
2022/06/30 03:55:33;;;;;;;7.45;1.52;;;;;;;10.02;97.66;99872.94;6348263;22;20017;-76
2022/06/30 03:58:01;;;;;;;7.97;1.70;;;;;;;9.94;97.56;99866.94;6348888;22;19999;-77
2022/06/30 04:00:35;;;;;;;10.35;1.90;;;;;;;9.88;98.02;99856.28;6322982;22;20065;-77
2022/06/30 04:03:03;;;;;;;9.57;1.20;;;;;;;9.89;97.90;99869.69;6294925;22;20014;-77
2022/06/30 04:05:38;;;;;;;7.30;1.63;;;;;;;9.87;98.01;99863.69;6349048;22;20002;-78
2022/06/30 04:08:07;;;;;;;4.90;1.40;;;;;;;9.93;98.12;99872.69;6321965;22;20007;-78
2022/06/30 04:10:33;;;;;;;9.73;1.73;;;;;;;9.89;98.30;99868.88;6322248;22;19994;-78
2022/06/30 04:12:59;;;;;;;7.35;1.33;;;;;;;9.90;98.47;99860.41;6321931;22;20025;-79
2022/06/30 04:15:28;;;;;;;7.53;1.55;;;;;;;9.96;98.13;99864.75;6323000;22;20025;-79
2022/06/30 04:17:58;;;;;;;7.95;1.75;;;;;;;10.02;98.25;99862.03;6319229;22;20345;-78
2022/06/30 04:20:24;;;;;;;8.73;1.30;;;;;;;10.04;98.09;99859.81;6296683;22;20002;-79
2022/06/30 04:22:52;;;;;;;5.97;1.58;;;;;;;10.25;98.17;99866.88;6348766;22;20367;-78
2022/06/30 04:25:25;;;;;;;4.18;1.27;;;;;;;10.29;97.90;99857.03;6321428;22;20006;-79
2022/06/30 04:27:52;;;;;;;3.90;1.40;;;;;;;10.52;97.17;99871.19;6295801;22;20003;-77
2022/06/30 04:33:06;;;;;;;11.43;1.55;;;;;;;10.68;96.54;99868.41;6348493;22;20062;-77
2022/06/30 04:35:34;;;;;;;6.90;1.40;;;;;;;10.73;96.17;99865.63;6318815;22;20049;-78
2022/06/30 04:38:01;;;;;;;5.72;1.55;;;;;;;10.81;95.59;99848.66;6320932;22;20011;-79
2022/06/30 04:43:11;;;;;;;4.43;1.10;;;;;;;11.43;95.09;99872.88;6346010;22;20010;-77
2022/06/30 04:45:36;;;;;;;3.45;1.17;;;;;;;11.68;93.53;99869.13;6291994;22;20011;-77
2022/06/30 04:48:02;;;;;;;4.25;0.80;;;;;;;11.91;92.58;99864.81;6319697;22;20065;-77
2022/06/30 04:50:28;;;;;;;4.00;1.10;;;;;;;12.07;90.97;99859.22;6344250;22;20010;-76
2022/06/30 04:52:54;;;;;;;7.20;1.10;;;;;;;12.29;90.50;99878.69;6318678;22;20017;-75
2022/06/30 04:55:19;;;;;;;3.90;0.88;;;;;;;12.35;90.29;99883.03;6317503;22;20006;-75
2022/06/30 04:57:45;;;;;;;4.75;0.80;;;;;;;12.31;89.23;99876.50;6291464;22;20014;-74
2022/06/30 05:00:10;;;;;;;4.15;0.98;;;;;;;12.31;89.22;99873.75;6317209;22;20480;-76
2022/06/30 05:02:39;;;;;;;4.40;0.90;;;;;;;12.32;89.33;99883.59;6316014;22;20022;-73
2022/06/30 05:05:05;;;;;;;4.85;1.33;;;;;;;12.19;88.81;99863.19;6344957;22;20007;-74
2022/06/30 05:07:30;;;;;;;2.17;0.82;;;;;;;12.15;89.13;99867.63;6344963;22;20433;-75
2022/06/30 05:10:01;;;;;;;2.53;0.70;;;;;;;12.20;89.14;99874.97;6317380;22;20085;-75
2022/06/30 05:12:26;;;;;;;1.75;0.50;;;;;;;12.16;89.02;99862.94;6316841;22;20011;-74
2022/06/30 05:14:52;;;;;;;4.18;1.00;;;;;;;12.28;88.39;99877.09;6292230;22;20014;-76
2022/06/30 05:17:17;;;;;;;3.90;0.75;;;;;;;12.32;88.49;99883.59;6290495;22;20019;-75
2022/06/30 05:19:45;;;;;;;4.30;1.33;;;;;;;12.26;87.85;99862.84;6314472;22;20105;-75
2022/06/30 05:22:11;;;;;;;9.95;1.30;;;;;;;12.44;87.73;99874.16;6315261;22;20056;-74
2022/06/30 05:27:20;;;;;;;12.75;1.70;;;;;;;12.51;86.42;99875.47;6342318;22;20032;-76
2022/06/30 05:29:46;;;;;;;6.38;1.10;;;;;;;12.50;85.99;99879.31;6316464;22;20097;-75
2022/06/30 05:32:11;;;;;;;3.58;1.20;;;;;;;12.45;85.86;99887.56;6265481;22;19999;-75
2022/06/30 05:34:37;;;;;;;4.78;1.10;;;;;;;12.42;86.12;99892.84;6344055;22;20057;-76
2022/06/30 05:37:03;;;;;;;5.45;1.00;;;;;;;12.31;86.09;99872.94;6266155;22;20006;-76
2022/06/30 05:39:29;;;;;;;4.15;1.10;;;;;;;12.28;86.72;99870.78;6289538;22;20018;-74
2022/06/30 05:41:59;;;;;;;4.38;1.02;;;;;;;12.26;86.97;99873.81;6287700;22;20003;-75
2022/06/30 05:44:25;;;;;;;2.67;0.73;;;;;;;12.37;86.90;99891.78;6313641;22;20513;-75
2022/06/30 05:46:51;;;;;;;3.30;0.75;;;;;;;12.42;86.29;99893.66;6344676;22;20010;-75
2022/06/30 05:49:22;;;;;;;2.20;0.73;;;;;;;12.39;85.86;99884.06;6316871;22;20010;-74
2022/06/30 05:51:47;;;;;;;3.65;0.88;;;;;;;12.39;85.59;99888.75;6293319;22;20136;-75
2022/06/30 05:54:13;;;;;;;2.78;0.70;;;;;;;12.41;85.52;99902.97;6345105;22;20049;-74
2022/06/30 05:56:38;;;;;;;2.25;0.70;;;;;;;12.36;86.22;99901.09;6317172;22;20033;-74
2022/06/30 05:59:04;;;;;;;4.28;0.82;;;;;;;12.38;86.25;99903.56;6344382;22;20003;-75
2022/06/30 06:01:32;;;;;;;3.00;0.88;;;;;;;12.39;85.96;99903.25;6293064;22;20370;-76
2022/06/30 06:03:58;;;;;;;3.85;0.73;;;;;;;12.42;86.18;99909.28;6317658;22;20417;-75
2022/06/30 06:06:23;;;;;;;2.38;0.80;;;;;;;12.45;85.73;99904.03;6290884;22;20019;-74
2022/06/30 06:08:49;;;;;;;7.35;0.93;;;;;;;12.51;85.90;99896.56;6290000;22;20011;-75
2022/06/30 06:12:12;;;;;;;;;;;;;;;;;;;;;
2022/06/30 06:14:40;;;;;;;4.25;1.40;;;;;;;12.66;85.18;99915.59;6345389;22;20031;-74
2022/06/30 06:17:06;;;;;;;2.67;0.60;;;;;;;12.68;85.47;99913.38;6315067;22;20023;-74
2022/06/30 06:19:31;;;;;;;4.05;1.00;;;;;;;12.61;84.69;99907.41;6313066;22;20007;-75
2022/06/30 06:21:56;;;;;;;6.60;0.80;;;;;;;12.57;85.25;99907.19;6290802;22;19998;-74
2022/06/30 06:24:22;;;;;;;3.42;1.13;;;;;;;12.73;84.53;99916.06;6342134;22;20071;-75
2022/06/30 06:26:47;;;;;;;2.05;0.80;;;;;;;12.87;84.82;99918.91;6342228;22;20002;-74
2022/06/30 06:29:14;;;;;;;3.78;1.00;;;;;;;13.02;84.26;99920.63;6286688;22;20003;-74
2022/06/30 06:31:40;;;;;;;1.50;0.90;;;;;;;13.16;84.04;99930.91;6290918;22;20042;-75
2022/06/30 06:34:07;;;;;;;3.50;1.00;;;;;;;13.32;83.25;99931.50;6288670;22;20011;-74
2022/06/30 06:36:33;;;;;;;0.88;0.70;;;;;;;13.49;83.45;99925.50;6343768;22;20009;-74
2022/06/30 06:38:58;;;;;;;3.63;0.70;;;;;;;13.69;82.27;99936.19;6343257;22;20644;-74
2022/06/30 06:41:25;;;;;;;1.88;0.90;;;;;;;14.01;82.20;99926.31;6317695;22;20044;-73
2022/06/30 06:43:51;;;;;;;1.27;0.60;;;;;;;14.45;80.78;99929.66;6318061;22;20011;-73
2022/06/30 06:46:27;;;;;;;2.50;0.80;;;;;;;14.58;79.61;99917.03;6342147;22;20077;-74
2022/06/30 06:48:57;;;;;;;5.85;1.10;;;;;;;14.60;79.38;99914.78;6315091;22;20385;-74
2022/06/30 06:51:26;;;;;;;3.17;1.00;;;;;;;14.53;79.01;99933.63;6313496;22;20010;-73
2022/06/30 06:53:52;;;;;;;5.72;1.20;;;;;;;14.41;78.95;99915.72;6343395;22;20485;-73
2022/06/30 06:56:46;;;;;;;2.83;0.82;;;;;;;14.31;78.34;99921.41;6313768;22;20082;-74
2022/06/30 06:59:10;;;;;;;1.88;0.65;;;;;;;14.41;78.45;99932.22;6318064;22;20456;-72
2022/06/30 07:01:36;;;;;;;3.33;1.17;;;;;;;14.34;78.06;99911.72;6313524;22;20035;-74
2022/06/30 07:04:02;;;;;;;3.20;0.90;;;;;;;14.53;77.37;99930.88;6314345;22;20009;-75
2022/06/30 07:06:27;;;;;;;4.43;1.23;;;;;;;14.63;76.28;99936.22;6341382;22;19999;-74
2022/06/30 07:08:53;;;;;;;5.43;1.30;;;;;;;14.74;75.86;99942.34;6316611;22;20010;-75
2022/06/30 07:11:19;;;;;;;4.35;1.17;;;;;;;14.59;75.13;99924.19;6290597;22;20010;-75
2022/06/30 07:13:45;;;;;;;3.25;1.00;;;;;;;14.68;75.88;99938.09;6313803;22;20003;-75
2022/06/30 07:16:13;;;;;;;3.75;0.75;;;;;;;14.60;75.99;99920.28;6334260;22;20103;-74
2022/06/30 07:18:38;;;;;;;4.75;0.80;;;;;;;14.70;76.24;99939.38;6316986;22;20021;-76
2022/06/30 07:21:06;;;;;;;5.60;1.10;;;;;;;14.68;75.53;99927.06;6310736;22;20133;-74
2022/06/30 07:23:36;;;;;;;6.10;1.13;;;;;;;14.68;74.82;99905.88;6275061;22;20035;-75
2022/06/30 07:26:02;;;;;;;9.85;1.48;;;;;;;14.87;73.85;99925.00;6250590;22;20154;-75
2022/06/30 07:28:37;;;;;;;3.40;0.80;;;;;;;14.92;72.75;99926.84;6301307;22;20283;-75
2022/06/30 07:31:10;;;;;;;10.52;1.20;;;;;;;14.95;72.59;99910.53;6302178;22;20412;-75
2022/06/30 07:37:17;;;;;;;;;;;;;;;15.78;69.11;99937.06;6150777;23;20428;-76
2022/06/30 07:39:43;;;;;;;4.32;1.30;;;;;;;15.69;68.40;99927.88;6099255;23;19929;-76
2022/06/30 07:42:15;;;;;;;8.05;1.23;;;;;;;15.44;68.85;99915.53;6092766;23;20006;-73
2022/06/30 07:44:44;;;;;;;5.68;0.88;;;;;;;15.26;69.65;99904.34;6128046;23;20066;-72
2022/06/30 07:47:10;;;;;;;7.45;1.58;;;;;;;15.45;69.65;99917.13;6146522;23;20008;-74
2022/06/30 07:49:51;;;;;;;5.65;0.80;;;;;;;15.73;69.18;99931.66;6247983;23;20008;-73
2022/06/30 07:52:38;;;;;;;4.65;0.90;;;;;;;16.04;68.86;99933.66;6217352;23;20016;-73
2022/06/30 07:55:06;;;;;;;3.50;1.13;;;;;;;16.34;67.44;99931.22;6181215;23;20455;-73
2022/06/30 07:57:42;;;;;;;5.10;0.90;;;;;;;16.72;66.41;99925.25;6221684;23;20043;-74
2022/06/30 08:00:19;;;;;;;4.60;1.02;;;;;;;17.38;64.41;99941.03;6223242;23;20004;-74
2022/06/30 08:03:18;;;;;;;;;;;;;;;;;;;;;
2022/06/30 08:06:27;;;;;;;;;;;;;;;;;;;;;
2022/06/30 08:09:19;;;;;;;4.28;0.93;;;;;;;18.43;58.74;99938.16;6232296;23;20028;-73
2022/06/30 08:11:53;;;;;;;2.65;0.77;;;;;;;18.36;57.90;99940.63;6311332;22;20498;-73
2022/06/30 08:14:29;;;;;;;3.47;0.77;;;;;;;18.37;58.65;99909.03;6318051;22;20014;-74
2022/06/30 08:17:13;;;;;;;3.85;0.88;;;;;;;17.96;59.54;99934.22;6314739;22;20091;-74
2022/06/30 08:19:41;;;;;;;5.75;1.02;;;;;;;16.71;70.96;99940.19;6317726;22;20018;-77
2022/06/30 08:22:10;;;;;;;5.60;1.10;;;;;;;15.91;74.41;99921.59;6346457;22;20001;-72
2022/06/30 08:24:35;;;;;;;9.75;1.73;;;;;;;15.33;74.42;99915.75;6317267;22;20053;-73
2022/06/30 08:27:02;;;;;;;4.10;0.80;;;;;;;15.15;75.72;99936.00;6344705;22;19994;-73
2022/06/30 08:29:33;;;;;;;3.58;0.80;;;;;;;15.09;76.03;99938.03;6344834;22;20417;-74
2022/06/30 08:32:26;;;;;;;5.72;1.85;;;;;;;14.75;75.51;99931.03;6318201;22;20006;-75
2022/06/30 08:35:01;;;;;;;5.05;1.10;;;;;;;14.57;76.92;99937.41;6338355;22;20038;-73
2022/06/30 08:37:30;;;;;;;5.35;0.80;;;;;;;14.47;77.48;99950.25;6270652;22;19995;-73
2022/06/30 08:42:44;;;;;;;5.00;1.15;;;;;;;14.56;76.77;99930.28;6346069;22;20013;-74
2022/06/30 08:45:18;;;;;;;10.85;0.90;;;;;;;14.77;75.46;99937.03;6317462;22;20032;-72
2022/06/30 08:47:52;;;;;;;6.18;1.58;;;;;;;14.98;75.25;99931.13;6318055;22;20005;-72
2022/06/30 08:50:20;;;;;;;6.25;1.17;;;;;;;15.50;71.18;99941.84;6344577;22;20002;-73
2022/06/30 08:52:47;;;;;;;4.13;1.10;;;;;;;15.96;67.35;99945.44;6345293;22;20033;-73
2022/06/30 08:55:18;;;;;;;4.65;1.20;;;;;;;16.48;66.24;99934.72;6344070;22;20020;-73
2022/06/30 08:57:47;;;;;;;5.13;0.98;;;;;;;17.23;62.58;99943.13;6316212;22;20001;-74
2022/06/30 09:00:28;;;;;;;;;;;;;;;;;;;;;
2022/06/30 09:05:57;;;;;;;5.80;1.40;;;;;;;19.16;58.09;99928.88;6250225;23;20007;-74
2022/06/30 09:08:23;;;;;;;5.05;1.20;;;;;;;19.18;57.66;99954.28;6224155;23;20008;-74
2022/06/30 09:11:07;;;;;;;1.52;0.60;;;;;;;18.26;62.60;99945.38;6278058;22;20003;-74
2022/06/30 09:13:48;;;;;;;16.08;1.77;;;;;;;16.56;78.88;99939.47;6290742;22;20013;-72
2022/06/30 09:16:17;;;;;;;4.43;0.95;;;;;;;15.25;83.97;99960.56;6343323;22;20014;-72
2022/06/30 09:18:43;;;;;;;3.85;1.08;;;;;;;14.62;89.29;99957.44;6312986;22;20021;-70
2022/06/30 09:21:32;;;;;;;3.10;0.88;;;;;;;14.23;92.46;99933.09;6341638;22;20021;-73
2022/06/30 09:24:05;;;;;;;3.83;1.00;;;;;;;14.21;94.32;99918.84;6313048;22;20333;-73
2022/06/30 09:26:30;;;;;;;6.82;1.30;;;;;;;14.55;95.31;99939.66;6315878;22;20010;-70
2022/06/30 09:28:56;;;;;;;6.18;1.17;;;;;;;14.75;96.07;99933.78;6345877;22;19998;-73
2022/06/30 09:31:38;;;;;;;6.88;1.35;;;;;;;14.84;96.44;99931.94;6315804;22;20011;-72
2022/06/30 09:34:22;;;;;;;8.90;1.35;;;;;;;14.67;96.23;99920.72;6292735;22;20011;-73
2022/06/30 09:36:49;;;;;;;4.05;1.10;;;;;;;14.68;96.54;99916.88;6318935;22;20038;-72
2022/06/30 09:39:16;;;;;;;5.40;1.10;;;;;;;14.95;97.60;99924.31;6344211;22;20010;-73
2022/06/30 09:41:44;;;;;;;2.78;0.98;;;;;;;15.11;97.41;99924.78;6314706;22;20086;-72
2022/06/30 09:44:15;;;;;;;2.30;0.77;;;;;;;15.61;97.75;99934.13;6316078;22;20014;-73
2022/06/30 09:46:54;;;;;;;6.95;1.20;;;;;;;16.30;96.11;99920.03;6341276;22;19999;-71
2022/06/30 09:49:39;;;;;;;3.45;1.13;;;;;;;16.95;94.11;99922.41;6342899;22;19995;-73
2022/06/30 09:52:18;;;;;;;5.80;1.00;;;;;;;17.73;91.05;99935.50;6313234;22;20441;-73
2022/06/30 09:54:59;;;;;;;8.48;1.30;;;;;;;18.20;82.31;99930.09;6343472;22;20086;-73
2022/06/30 09:57:39;;;;;;;1.35;0.70;;;;;;;18.07;79.65;99933.88;6316258;22;20010;-72
2022/06/30 10:00:06;;;;;;;2.42;0.70;;;;;;;17.24;67.92;99919.88;6343620;22;20002;-73
2022/06/30 10:02:41;;;;;;;4.43;0.65;;;;;;;16.54;68.07;99922.44;6314410;22;20007;-72
2022/06/30 10:05:08;;;;;;;2.40;0.52;;;;;;;16.35;65.05;99925.44;6312079;22;20333;-72
2022/06/30 10:07:35;;;;;;;2.78;0.65;;;;;;;16.32;63.16;99928.78;6316516;22;19999;-72
2022/06/30 10:10:07;;;;;;;2.75;0.82;;;;;;;16.70;62.67;99928.31;6289994;22;20006;-72
2022/06/30 10:12:33;;;;;;;2.15;0.40;;;;;;;18.18;58.41;99932.38;6341872;22;19995;-73
2022/06/30 10:14:59;;;;;;;5.65;0.60;;;;;;;20.92;50.82;99939.91;6314105;22;20007;-73
2022/06/30 10:17:31;;;;;;;1.88;0.60;;;;;;;22.30;48.50;99931.63;6339106;22;20026;-71
2022/06/30 10:19:57;;;;;;;2.47;0.45;;;;;;;21.86;51.32;99937.16;6313963;22;20007;-72
2022/06/30 10:22:27;;;;;;;0.40;0.20;;;;;;;23.33;52.97;99935.38;6314385;22;20011;-72
2022/06/30 10:24:57;;;;;;;2.03;0.70;;;;;;;27.56;41.00;99937.16;6342348;22;20375;-72
2022/06/30 10:27:25;;;;;;;1.50;0.60;;;;;;;31.37;37.74;99945.78;6343019;22;20010;-74
2022/06/30 10:29:58;;;;;;;0.65;0.30;;;;;;;33.64;34.69;99950.78;6315152;22;20067;-73
2022/06/30 10:32:53;;;;;;;2.28;0.45;;;;;;;32.81;35.77;99955.19;6344069;22;20421;-72
2022/06/30 10:35:28;;;;;;;5.72;0.80;;;;;;;28.30;36.21;99943.47;6330156;22;20003;-73
2022/06/30 10:38:16;;;;;;;8.50;1.40;;;;;;;24.18;42.83;99934.72;6314483;22;20009;-72
2022/06/30 10:41:03;;;;;;;5.68;0.80;;;;;;;22.23;46.50;99945.34;6312808;22;20007;-72
2022/06/30 10:43:28;;;;;;;3.97;0.70;;;;;;;21.59;48.87;99936.81;6342286;22;20002;-71
2022/06/30 10:45:56;;;;;;;2.90;0.68;;;;;;;24.32;45.20;99933.38;6289565;22;20022;-72
2022/06/30 10:48:22;;;;;;;1.92;0.60;;;;;;;24.23;45.11;99925.22;6340664;22;19999;-73
2022/06/30 10:50:49;;;;;;;4.38;1.10;;;;;;;23.25;45.41;99927.22;6314922;22;20468;-73
2022/06/30 10:53:37;;;;;;;2.42;0.80;;;;;;;22.54;49.21;99930.66;6290855;22;20086;-73
2022/06/30 10:56:04;;;;;;;4.88;1.05;;;;;;;21.79;47.73;99929.44;6344284;22;20055;-72
2022/06/30 10:58:30;;;;;;;1.50;0.45;;;;;;;21.27;49.94;99931.91;6313297;22;20020;-73
2022/06/30 11:00:55;;;;;;;2.85;0.90;;;;;;;20.86;50.03;99941.31;6286430;22;20006;-73
2022/06/30 11:03:34;;;;;;;4.95;1.00;;;;;;;20.39;51.28;99950.84;6315673;22;20006;-72
2022/06/30 11:06:13;;;;;;;7.28;1.02;;;;;;;18.95;60.52;99945.44;6342268;22;19999;-72
2022/06/30 11:08:39;;;;;;;3.30;0.90;;;;;;;16.97;75.26;99947.75;6338329;22;20022;-73
2022/06/30 11:11:22;;;;;;;1.20;0.50;;;;;;;16.53;79.25;99944.81;6340379;22;19995;-71
2022/06/30 11:13:49;;;;;;;2.65;0.75;;;;;;;16.36;82.00;99951.88;6339801;22;20003;-72
2022/06/30 11:16:40;;;;;;;1.88;0.40;;;;;;;16.16;83.70;99933.91;6337232;22;20037;-73
2022/06/30 11:22:20;;;;;;;0.90;0.47;;;;;;;16.52;84.31;99919.16;6311346;22;20003;-73
2022/06/30 11:24:51;;;;;;;5.78;0.90;;;;;;;16.28;79.92;99907.69;6339797;22;20029;-73
2022/06/30 11:27:22;;;;;;;2.33;0.63;;;;;;;16.19;80.61;99922.25;6340694;22;20123;-73
2022/06/30 11:29:59;;;;;;;2.63;0.80;;;;;;;16.10;79.87;99920.56;6314077;22;20012;-73
2022/06/30 11:32:31;;;;;;;3.65;0.90;;;;;;;16.13;80.29;99940.03;6312653;22;20013;-74
2022/06/30 11:35:02;;;;;;;2.40;0.68;;;;;;;15.98;79.26;99923.91;6314030;22;20018;-73
2022/06/30 11:37:33;;;;;;;3.55;0.70;;;;;;;16.05;77.18;99921.53;6341681;22;20006;-73
2022/06/30 11:40:19;;;;;;;3.63;0.70;;;;;;;16.61;77.52;99929.44;6311044;22;20022;-72
2022/06/30 11:42:44;;;;;;;2.35;0.50;;;;;;;17.52;75.20;99933.41;6313299;22;20022;-72
2022/06/30 11:45:21;;;;;;;0.88;0.43;;;;;;;17.10;73.36;99919.22;6338769;22;19999;-72
2022/06/30 11:48:00;;;;;;;1.35;0.40;;;;;;;16.91;72.42;99928.59;6313889;22;20003;-74
2022/06/30 11:50:34;;;;;;;0.80;0.50;;;;;;;16.88;72.06;99939.44;6314285;22;20418;-74
2022/06/30 11:53:08;;;;;;;1.13;0.40;;;;;;;16.88;73.42;99923.72;6315242;22;20018;-72
2022/06/30 11:55:44;;;;;;;2.28;0.55;;;;;;;16.91;73.51;99920.31;6314897;22;20090;-73
2022/06/30 11:58:10;;;;;;;1.20;0.47;;;;;;;16.93;74.56;99926.31;6315717;22;19999;-74
2022/06/30 12:00:36;;;;;;;0.50;0.30;;;;;;;16.88;75.13;99920.94;6312909;22;20078;-72
2022/06/30 12:03:04;;;;;;;1.05;0.40;;;;;;;16.72;74.89;99911.44;6313962;22;20007;-71
2022/06/30 12:05:29;;;;;;;4.05;0.50;;;;;;;16.63;74.99;99916.09;6313375;22;20057;-73
2022/06/30 12:08:21;;;;;;;;;;;;;;;;;;;;;
2022/06/30 12:10:59;;;;;;;;;;;;;;;;;;;;;
2022/06/30 12:16:41;;;;;;;1.48;0.40;;;;;;;16.87;78.43;99911.03;6309093;22;20011;-74
2022/06/30 12:25:56;;;;;;;;;;;;;;;;;;;;;
2022/06/30 12:35:55;;;;;;;1.73;0.45;;;;;;;16.04;72.07;99950.22;6216072;23;20036;-72
2022/06/30 12:39:15;;;;;;;;;;;;;;;;;;;;;
2022/06/30 12:42:10;;;;;;;2.25;0.52;;;;;;;15.12;75.44;99923.66;6307070;22;20090;-74
2022/06/30 12:52:50;;;;;;;;;;;;;;;;;;;;;
2022/06/30 12:56:18;;;;;;;;;;;;;;;;;;;;;
2022/06/30 12:59:03;;;;;;;1.67;0.52;;;;;;;14.90;77.52;99913.38;6017434;23;20011;-73
2022/06/30 13:02:27;;;;;;;0.77;0.40;;;;;;;14.97;77.63;99924.00;5985359;23;20008;-74
2022/06/30 13:04:56;;;;;;;0.47;0.30;;;;;;;15.02;76.69;99921.13;5928948;24;20008;-72